createdAt,value
2018-09-10T00:04:57.954Z,19.40
2018-09-10T00:10:02.219Z,19.50
2018-09-10T00:15:06.356Z,19.50
2018-09-10T00:20:10.577Z,19.00
2018-09-10T00:25:14.841Z,18.60
2018-09-10T00:30:19.053Z,18.60
2018-09-10T00:35:23.234Z,18.80
2018-09-10T00:40:27.466Z,18.80
2018-09-10T00:45:31.644Z,18.90
2018-09-10T00:50:35.831Z,18.90
2018-09-10T00:55:40.105Z,19.00
2018-09-10T01:00:44.285Z,18.90
2018-09-10T01:05:48.541Z,19.00
2018-09-10T01:10:52.780Z,18.30
2018-09-10T01:15:56.940Z,18.40
2018-09-10T01:21:02.108Z,18.30
2018-09-10T01:26:06.254Z,18.40
2018-09-10T01:31:10.479Z,18.50
2018-09-10T01:36:14.649Z,18.50
2018-09-10T01:41:19.045Z,18.70
2018-09-10T01:46:23.223Z,18.70
2018-09-10T01:51:27.415Z,18.70
2018-09-10T01:56:31.689Z,18.70
2018-09-10T02:01:35.916Z,18.70
2018-09-10T02:06:40.177Z,18.70
2018-09-10T02:11:44.386Z,18.60
2018-09-10T02:16:48.605Z,18.60
2018-09-10T02:21:52.837Z,18.60
2018-09-10T02:26:57.104Z,18.60
2018-09-10T02:32:01.316Z,18.60
2018-09-10T02:37:06.569Z,18.60
2018-09-10T02:42:10.814Z,18.60
2018-09-10T02:47:14.976Z,18.50
2018-09-10T02:52:19.149Z,18.50
2018-09-10T02:57:23.411Z,18.50
2018-09-10T03:02:27.668Z,18.50
2018-09-10T03:07:31.869Z,18.40
2018-09-10T03:12:36.071Z,18.10
2018-09-10T03:17:40.243Z,18.10
2018-09-10T03:22:44.513Z,18.30
2018-09-10T03:27:48.703Z,18.20
2018-09-10T03:32:52.895Z,18.10
2018-09-10T03:37:57.204Z,18.10
2018-09-10T03:43:01.377Z,18.10
2018-09-10T03:48:05.587Z,18.20
2018-09-10T03:53:09.751Z,18.20
2018-09-10T03:58:13.941Z,18.20
2018-09-10T04:03:18.165Z,17.80
2018-09-10T04:08:22.404Z,17.80
2018-09-10T04:13:26.633Z,17.90
2018-09-10T04:18:30.925Z,17.90
2018-09-10T04:23:35.134Z,18.10
2018-09-10T04:28:39.347Z,18.00
2018-09-10T04:33:43.637Z,17.90
2018-09-10T04:38:47.823Z,18.00
2018-09-10T04:43:52.364Z,18.20
2018-09-10T04:48:56.577Z,18.30
2018-09-10T04:54:00.765Z,18.10
2018-09-10T04:59:04.964Z,17.90
2018-09-10T05:04:09.119Z,17.90
2018-09-10T05:09:13.662Z,18.00
2018-09-10T05:14:17.859Z,17.70
2018-09-10T05:19:22.041Z,17.80
2018-09-10T05:24:26.209Z,17.70
2018-09-10T05:29:30.437Z,17.50
2018-09-10T05:34:34.653Z,17.60
2018-09-10T05:39:38.867Z,17.80
2018-09-10T05:44:43.032Z,17.80
2018-09-10T05:49:47.288Z,17.80
2018-09-10T05:54:51.449Z,17.80
2018-09-10T05:59:55.638Z,17.70
2018-09-10T06:04:59.831Z,17.50
2018-09-10T06:10:04.269Z,17.50
2018-09-10T06:15:08.488Z,17.30
2018-09-10T06:20:12.649Z,17.30
2018-09-10T06:25:16.890Z,17.40
2018-09-10T06:30:21.140Z,17.50
2018-09-10T06:35:25.263Z,17.80
2018-09-10T06:40:29.662Z,17.90
2018-09-10T06:45:33.930Z,17.70
2018-09-10T06:50:38.106Z,17.70
2018-09-10T06:55:42.252Z,18.00
2018-09-10T07:00:47.375Z,18.10
2018-09-10T07:05:51.543Z,18.10
2018-09-10T07:10:55.768Z,18.00
2018-09-10T07:16:00.181Z,17.80
2018-09-10T07:21:04.409Z,17.90
2018-09-10T07:26:08.567Z,17.90
2018-09-10T07:31:12.822Z,18.10
2018-09-10T07:36:17.046Z,18.20
2018-09-10T07:41:21.215Z,18.30
2018-09-10T07:46:25.412Z,18.60
2018-09-10T07:51:29.634Z,18.20
2018-09-10T07:56:33.863Z,18.40
2018-09-10T08:01:38.104Z,18.70
2018-09-10T08:06:42.319Z,19.10
2018-09-10T08:11:46.550Z,19.00
2018-09-10T08:16:50.820Z,19.30
2018-09-10T08:21:55.031Z,19.50
2018-09-10T08:26:59.201Z,19.70
2018-09-10T08:32:03.466Z,19.70
2018-09-10T08:37:07.625Z,19.60
2018-09-10T08:42:11.886Z,19.60
2018-09-10T08:47:16.264Z,19.80
2018-09-10T08:52:20.525Z,20.10
2018-09-10T08:57:24.720Z,20.60
2018-09-10T09:02:28.950Z,20.60
2018-09-10T09:07:33.240Z,20.40
2018-09-10T09:12:37.396Z,20.00
2018-09-10T09:17:41.588Z,20.70
2018-09-10T09:22:45.764Z,20.30
2018-09-10T09:27:49.944Z,21.40
2018-09-10T09:32:54.157Z,20.80
2018-09-10T09:38:03.649Z,22.00
2018-09-10T09:43:13.304Z,20.90
2018-09-10T09:48:17.497Z,20.90
2018-09-10T09:53:21.711Z,20.90
2018-09-10T09:58:25.874Z,21.50
2018-09-10T10:03:35.571Z,22.60
2018-09-10T10:08:39.734Z,22.00
2018-09-10T10:13:43.910Z,21.40
2018-09-10T10:18:48.100Z,21.40
2018-09-10T10:23:52.326Z,21.70
2018-09-10T10:28:56.828Z,23.40
2018-09-10T10:34:01.030Z,22.40
2018-09-10T10:39:06.693Z,22.20
2018-09-10T10:44:10.827Z,22.70
2018-09-10T10:49:15.020Z,22.20
2018-09-10T10:54:19.187Z,22.60
2018-09-10T10:59:23.387Z,23.30
2018-09-10T11:04:27.541Z,22.40
2018-09-10T11:09:31.755Z,22.40
2018-09-10T11:14:35.992Z,22.10
2018-09-10T11:19:40.216Z,21.90
2018-09-10T11:24:44.446Z,22.00
2018-09-10T11:29:48.659Z,22.10
2018-09-10T11:34:52.872Z,22.50
2018-09-10T11:39:57.094Z,22.60
2018-09-10T11:45:01.235Z,22.90
2018-09-10T11:50:05.565Z,23.10
2018-09-10T11:55:09.734Z,22.80
2018-09-10T12:00:13.921Z,23.20
2018-09-10T12:05:18.091Z,23.70
2018-09-10T12:10:22.255Z,24.70
2018-09-10T12:15:26.458Z,23.70
2018-09-10T12:20:30.682Z,25.10
2018-09-10T12:25:34.915Z,24.10
2018-09-10T12:30:39.116Z,23.60
2018-09-10T12:35:43.529Z,23.40
2018-09-10T12:40:47.715Z,23.20
2018-09-10T12:45:52.069Z,23.10
2018-09-10T12:50:56.281Z,23.10
2018-09-10T12:56:00.531Z,23.50
2018-09-10T13:01:04.719Z,23.60
2018-09-10T13:06:08.925Z,24.00
2018-09-10T13:11:13.092Z,24.30
2018-09-10T13:16:17.284Z,24.60
2018-09-10T13:21:21.481Z,25.00
2018-09-10T13:26:25.708Z,24.10
2018-09-10T13:31:29.878Z,23.70
2018-09-10T13:36:34.120Z,23.60
2018-09-10T13:41:38.272Z,23.50
2018-09-10T13:46:42.508Z,24.80
2018-09-10T13:51:46.808Z,24.50
2018-09-10T13:56:50.983Z,24.50
2018-09-10T14:01:55.159Z,23.70
2018-09-10T14:06:59.631Z,23.60
2018-09-10T14:12:03.834Z,23.50
2018-09-10T14:17:08.020Z,23.90
2018-09-10T14:22:12.221Z,23.50
2018-09-10T14:27:16.931Z,23.50
2018-09-10T14:32:21.173Z,24.30
2018-09-10T14:37:25.425Z,23.40
2018-09-10T14:42:29.574Z,23.40
2018-09-10T14:47:33.723Z,23.20
2018-09-10T14:52:37.898Z,23.50
2018-09-10T14:57:42.077Z,23.10
2018-09-10T15:02:46.311Z,23.10
2018-09-10T15:07:50.976Z,23.10
2018-09-10T15:12:55.184Z,22.90
2018-09-10T15:17:59.403Z,23.00
2018-09-10T15:23:03.644Z,23.00
2018-09-10T15:28:07.774Z,23.10
2018-09-10T15:33:11.950Z,23.40
2018-09-10T15:38:16.137Z,23.20
2018-09-10T15:43:20.374Z,23.60
2018-09-10T15:48:24.600Z,23.20
2018-09-10T15:53:28.853Z,23.30
2018-09-10T15:58:33.019Z,23.20
2018-09-10T16:03:37.259Z,23.10
2018-09-10T16:08:41.452Z,23.10
2018-09-10T16:13:45.670Z,23.20
2018-09-10T16:18:49.929Z,22.90
2018-09-10T16:23:54.137Z,22.90
2018-09-10T16:28:58.348Z,22.60
2018-09-10T16:34:02.967Z,22.60
2018-09-10T16:39:08.910Z,22.70
2018-09-10T16:44:13.075Z,22.70
2018-09-10T16:49:17.231Z,22.60
2018-09-10T16:54:21.573Z,22.70
2018-09-10T16:59:25.579Z,22.60
2018-09-10T17:04:29.821Z,22.50
2018-09-10T17:09:34.076Z,22.30
2018-09-10T17:14:38.385Z,22.60
2018-09-10T17:19:42.565Z,22.60
2018-09-10T17:24:46.802Z,22.40
2018-09-10T17:29:50.979Z,22.40
2018-09-10T17:34:55.199Z,22.50
2018-09-10T17:39:59.476Z,22.40
2018-09-10T17:45:03.731Z,22.30
2018-09-10T17:50:07.976Z,22.20
2018-09-10T17:55:12.175Z,22.30
2018-09-10T18:00:16.378Z,22.30
2018-09-10T18:05:21.007Z,21.90
2018-09-10T18:10:25.272Z,22.20
2018-09-10T18:15:29.500Z,22.10
2018-09-10T18:20:34.298Z,22.10
2018-09-10T18:25:38.461Z,22.00
2018-09-10T18:30:42.703Z,22.10
2018-09-10T18:35:47.030Z,22.20
2018-09-10T18:40:51.248Z,22.20
2018-09-10T18:45:55.466Z,22.10
2018-09-10T18:50:59.680Z,22.10
2018-09-10T18:56:03.913Z,21.90
2018-09-10T19:01:08.237Z,21.80
2018-09-10T19:06:12.403Z,21.70
2018-09-10T19:11:16.716Z,21.70
2018-09-10T19:16:21.922Z,21.70
2018-09-10T19:21:26.149Z,21.60
2018-09-10T19:26:30.464Z,21.60
2018-09-10T19:31:34.792Z,21.40
2018-09-10T19:36:39.111Z,21.20
2018-09-10T19:41:43.875Z,21.10
2018-09-10T19:46:48.655Z,21.10
2018-09-10T19:51:53.163Z,20.90
2018-09-10T19:56:57.425Z,20.90
2018-09-10T20:02:01.798Z,20.70
2018-09-10T20:07:06.129Z,20.60
2018-09-10T20:12:10.955Z,20.50
2018-09-10T20:17:15.203Z,20.50
2018-09-10T20:22:19.428Z,20.40
2018-09-10T20:27:23.650Z,20.40
2018-09-10T20:32:28.102Z,20.30
2018-09-10T20:37:32.495Z,20.20
2018-09-10T20:42:36.706Z,20.20
2018-09-10T20:47:41.192Z,20.00
2018-09-10T20:52:46.029Z,20.00
2018-09-10T20:57:50.221Z,19.60
2018-09-10T21:02:54.567Z,19.50
2018-09-10T21:07:58.858Z,19.70
2018-09-10T21:13:03.073Z,19.60
2018-09-10T21:18:07.299Z,19.80
2018-09-10T21:23:11.824Z,19.80
2018-09-10T21:28:16.049Z,19.50
2018-09-10T21:33:20.370Z,19.40
2018-09-10T21:38:24.748Z,19.50
2018-09-10T21:43:28.925Z,19.30
2018-09-10T21:48:33.412Z,19.20
2018-09-10T21:53:37.673Z,19.20
2018-09-10T21:58:41.912Z,19.10
2018-09-10T22:03:46.097Z,19.20
2018-09-10T22:08:50.260Z,18.80
2018-09-10T22:13:54.580Z,18.80
2018-09-10T22:18:58.807Z,18.90
2018-09-10T22:24:03.048Z,19.10
2018-09-10T22:29:07.268Z,19.20
2018-09-10T22:34:11.775Z,19.30
2018-09-10T22:39:16.279Z,19.00
2018-09-10T22:44:20.526Z,19.20
2018-09-10T22:49:24.692Z,19.20
2018-09-10T22:54:28.852Z,19.10
2018-09-10T22:59:33.499Z,19.10
2018-09-10T23:04:37.737Z,19.00
2018-09-10T23:09:41.951Z,19.00
2018-09-10T23:14:46.120Z,19.00
2018-09-10T23:19:50.308Z,18.90
2018-09-10T23:24:54.493Z,18.80
2018-09-10T23:29:58.754Z,18.70
2018-09-10T23:35:03.031Z,18.70
2018-09-10T23:40:07.233Z,18.50
2018-09-10T23:45:11.418Z,18.60
2018-09-10T23:50:15.583Z,18.50
2018-09-10T23:55:19.769Z,18.40
